createdAt,value
2023-05-10T00:00:02.596Z,41.00
2023-05-10T00:02:42.558Z,42.17
2023-05-10T00:05:13.300Z,43.63
2023-05-10T00:07:41.886Z,51.23
2023-05-10T00:10:11.195Z,39.67
2023-05-10T00:12:39.936Z,52.83
2023-05-10T00:15:10.044Z,49.83
2023-05-10T00:17:38.524Z,46.03
2023-05-10T00:20:08.104Z,47.10
2023-05-10T00:22:38.042Z,43.83
2023-05-10T00:25:08.176Z,39.47
2023-05-10T00:27:36.645Z,33.33
2023-05-10T00:30:05.583Z,41.27
2023-05-10T00:32:34.111Z,40.37
2023-05-10T00:35:02.555Z,36.07
2023-05-10T00:37:31.148Z,33.93
2023-05-10T00:40:01.119Z,32.40
2023-05-10T00:42:29.597Z,33.97
2023-05-10T00:44:58.833Z,35.87
2023-05-10T00:47:27.526Z,33.17
2023-05-10T00:49:56.722Z,35.20
2023-05-10T00:52:25.821Z,37.57
2023-05-10T00:54:55.072Z,31.40
2023-05-10T00:57:25.104Z,32.73
2023-05-10T00:59:54.236Z,29.43
2023-05-10T01:02:23.479Z,30.93
2023-05-10T01:04:53.115Z,28.17
2023-05-10T01:07:21.798Z,27.00
2023-05-10T01:09:50.535Z,22.67
2023-05-10T01:12:19.283Z,25.87
2023-05-10T01:14:50.095Z,24.80
2023-05-10T01:17:19.112Z,26.20
2023-05-10T01:19:48.072Z,24.13
2023-05-10T01:22:42.083Z,25.47
2023-05-10T01:25:32.703Z,26.67
2023-05-10T01:28:39.445Z,21.87
2023-05-10T01:31:40.864Z,25.57
2023-05-10T01:34:15.244Z,22.17
2023-05-10T01:36:49.292Z,24.80
2023-05-10T01:39:25.550Z,23.80
2023-05-10T01:42:00.420Z,31.83
2023-05-10T01:44:37.265Z,25.43
2023-05-10T01:47:12.199Z,28.07
2023-05-10T01:49:48.988Z,24.27
2023-05-10T01:52:20.822Z,28.03
2023-05-10T01:54:54.461Z,34.30
2023-05-10T01:57:27.935Z,32.30
2023-05-10T01:59:58.668Z,34.60
2023-05-10T02:02:30.019Z,44.37
2023-05-10T02:05:01.356Z,44.50
2023-05-10T02:07:30.844Z,47.57
2023-05-10T02:10:00.566Z,54.73
2023-05-10T02:12:31.163Z,48.03
2023-05-10T02:15:02.695Z,49.77
2023-05-10T02:17:35.182Z,47.87
2023-05-10T02:20:08.808Z,43.53
2023-05-10T02:22:39.297Z,55.63
2023-05-10T02:25:11.048Z,51.87
2023-05-10T02:27:39.859Z,52.57
2023-05-10T02:30:11.537Z,53.40
2023-05-10T02:32:41.149Z,52.40
2023-05-10T02:35:13.367Z,48.47
2023-05-10T02:37:43.540Z,52.93
2023-05-10T02:40:13.853Z,52.73
2023-05-10T02:42:44.854Z,48.63
2023-05-10T02:45:17.468Z,61.47
2023-05-10T02:47:46.044Z,56.60
2023-05-10T02:50:16.964Z,56.87
2023-05-10T02:52:50.420Z,63.90
2023-05-10T02:55:23.843Z,60.43
2023-05-10T02:57:56.725Z,67.37
2023-05-10T03:00:26.822Z,67.27
2023-05-10T03:02:55.787Z,68.33
2023-05-10T03:05:26.866Z,75.17
2023-05-10T03:07:56.940Z,77.00
2023-05-10T03:10:31.589Z,76.03
2023-05-10T03:13:10.246Z,80.33
2023-05-10T03:15:50.754Z,77.13
2023-05-10T03:18:23.948Z,84.53
2023-05-10T03:20:59.959Z,85.87
2023-05-10T03:23:32.445Z,96.30
2023-05-10T03:26:02.778Z,89.23
2023-05-10T03:28:34.095Z,90.00
2023-05-10T03:31:03.768Z,89.83
2023-05-10T03:33:33.528Z,100.70
2023-05-10T03:36:03.747Z,99.43
2023-05-10T03:38:32.396Z,99.50
2023-05-10T03:41:01.250Z,103.93
2023-05-10T03:43:29.809Z,105.33
2023-05-10T03:45:58.503Z,94.07
2023-05-10T03:48:27.072Z,104.43
2023-05-10T03:50:55.605Z,104.53
2023-05-10T03:53:25.716Z,102.73
2023-05-10T03:55:54.304Z,104.27
2023-05-10T03:58:23.001Z,103.77
2023-05-10T04:00:51.816Z,105.50
2023-05-10T04:03:21.354Z,111.13
2023-05-10T04:05:49.982Z,104.20
2023-05-10T04:08:18.661Z,101.27
2023-05-10T04:10:48.790Z,99.63
2023-05-10T04:13:17.286Z,101.00
2023-05-10T04:15:46.058Z,108.33
2023-05-10T04:18:15.268Z,101.53
2023-05-10T04:20:43.980Z,95.40
2023-05-10T04:23:12.683Z,103.13
2023-05-10T04:25:41.488Z,108.43
2023-05-10T04:28:11.474Z,92.20
2023-05-10T04:30:41.698Z,107.90
2023-05-10T04:33:10.278Z,115.33
2023-05-10T04:35:38.767Z,111.27
2023-05-10T04:38:07.278Z,117.83
2023-05-10T04:40:35.756Z,131.10
2023-05-10T04:43:04.300Z,121.33
2023-05-10T04:45:34.568Z,118.30
2023-05-10T04:48:03.013Z,136.10
2023-05-10T04:50:31.668Z,126.63
2023-05-10T04:53:00.247Z,127.50
2023-05-10T04:55:29.246Z,121.70
2023-05-10T04:57:58.318Z,129.80
2023-05-10T05:00:27.224Z,137.40
2023-05-10T05:02:57.201Z,132.00
2023-05-10T05:05:25.895Z,133.17
2023-05-10T05:07:54.718Z,135.37
2023-05-10T05:10:23.333Z,137.03
2023-05-10T05:12:52.002Z,124.57
2023-05-10T05:15:20.665Z,129.20
2023-05-10T05:17:49.682Z,125.37
2023-05-10T05:20:20.390Z,125.83
2023-05-10T05:22:49.033Z,126.20
2023-05-10T05:25:18.369Z,123.60
2023-05-10T05:27:46.919Z,114.87
2023-05-10T05:30:15.966Z,126.97
2023-05-10T05:32:44.574Z,113.97
2023-05-10T05:35:13.289Z,112.90
2023-05-10T05:37:43.309Z,115.87
2023-05-10T05:40:15.081Z,118.37
2023-05-10T05:42:44.238Z,129.60
2023-05-10T05:45:15.343Z,126.93
2023-05-10T05:47:44.330Z,129.67
2023-05-10T05:50:14.143Z,136.90
2023-05-10T05:52:44.598Z,129.87
2023-05-10T05:55:14.078Z,131.07
2023-05-10T05:57:42.921Z,124.10
2023-05-10T06:00:12.098Z,138.47
2023-05-10T06:02:43.547Z,134.93
2023-05-10T06:05:12.299Z,137.97
2023-05-10T06:07:43.228Z,131.13
2023-05-10T06:10:13.294Z,121.70
2023-05-10T06:12:42.065Z,136.40
2023-05-10T06:15:12.089Z,132.00
2023-05-10T06:17:41.338Z,128.70
2023-05-10T06:20:11.292Z,131.27
2023-05-10T06:22:40.004Z,134.70
2023-05-10T06:25:10.086Z,134.57
2023-05-10T06:27:40.135Z,126.27
2023-05-10T06:30:13.496Z,134.37
2023-05-10T06:32:42.338Z,129.67
2023-05-10T06:35:11.864Z,130.00
2023-05-10T06:37:40.936Z,129.07
2023-05-10T06:40:10.495Z,123.87
2023-05-10T06:42:40.526Z,119.87
2023-05-10T06:45:10.330Z,118.40
2023-05-10T06:47:39.453Z,120.40
2023-05-10T06:50:09.326Z,115.17
2023-05-10T06:52:38.125Z,109.63
2023-05-10T06:55:07.842Z,114.00
2023-05-10T06:57:36.588Z,102.00
2023-05-10T07:00:08.281Z,100.93
2023-05-10T07:02:36.992Z,95.97
2023-05-10T07:05:06.133Z,94.87
2023-05-10T07:07:34.728Z,95.40
2023-05-10T07:10:03.699Z,89.20
2023-05-10T07:12:32.639Z,95.47
2023-05-10T07:15:01.439Z,79.13
2023-05-10T07:17:32.217Z,83.33
2023-05-10T07:20:02.219Z,79.17
2023-05-10T07:22:31.231Z,70.93
2023-05-10T07:24:59.799Z,70.60
2023-05-10T07:27:28.405Z,69.90
2023-05-10T07:29:57.799Z,66.73
2023-05-10T07:32:26.827Z,60.83
2023-05-10T07:34:56.995Z,63.40
2023-05-10T07:37:29.211Z,57.90
2023-05-10T07:39:58.957Z,64.80
2023-05-10T07:42:28.002Z,59.87
2023-05-10T07:44:56.548Z,53.87
2023-05-10T07:47:26.298Z,52.17
2023-05-10T07:49:56.439Z,44.67
2023-05-10T07:52:24.965Z,41.20
2023-05-10T07:54:53.460Z,40.37
2023-05-10T07:57:22.094Z,41.87
2023-05-10T07:59:50.831Z,43.53
2023-05-10T08:02:19.424Z,38.27
2023-05-10T08:04:48.192Z,40.87
2023-05-10T08:07:18.198Z,40.10
2023-05-10T08:09:46.890Z,41.53
2023-05-10T08:12:15.445Z,43.53
2023-05-10T08:14:44.039Z,38.77
2023-05-10T08:17:12.600Z,41.87
2023-05-10T08:19:41.205Z,45.57
2023-05-10T08:22:09.964Z,42.60
2023-05-10T08:24:40.135Z,40.90
2023-05-10T08:27:08.754Z,44.27
2023-05-10T08:29:48.955Z,43.20
2023-05-10T08:32:18.707Z,42.80
2023-05-10T08:34:47.319Z,42.47
2023-05-10T08:37:16.026Z,41.10
2023-05-10T08:39:46.901Z,41.20
2023-05-10T08:42:21.401Z,41.03
2023-05-10T08:44:51.080Z,48.80
2023-05-10T08:47:20.952Z,43.80
2023-05-10T08:49:52.262Z,38.97
2023-05-10T08:52:21.005Z,44.73
2023-05-10T08:54:51.386Z,43.20
2023-05-10T08:57:22.009Z,45.57
2023-05-10T08:59:50.679Z,38.27
2023-05-10T09:02:20.905Z,41.07
2023-05-10T09:04:50.279Z,34.53
2023-05-10T09:07:19.606Z,42.07
2023-05-10T09:09:48.749Z,46.20
2023-05-10T09:12:18.721Z,37.70
2023-05-10T09:14:47.886Z,38.33
2023-05-10T09:17:17.467Z,39.40
2023-05-10T09:19:47.881Z,42.63
2023-05-10T09:22:16.461Z,37.57
2023-05-10T09:24:46.495Z,41.93
2023-05-10T09:27:15.003Z,36.97
2023-05-10T09:29:46.255Z,34.53
2023-05-10T09:32:16.095Z,39.83
2023-05-10T09:34:44.674Z,36.23
2023-05-10T09:37:13.288Z,36.53
2023-05-10T09:39:42.452Z,31.83
2023-05-10T09:42:12.325Z,33.03
2023-05-10T09:44:42.055Z,31.70
2023-05-10T09:47:12.219Z,31.40
2023-05-10T09:49:41.532Z,28.73
2023-05-10T09:52:10.392Z,31.33
2023-05-10T09:54:38.993Z,30.33
2023-05-10T09:57:07.790Z,28.07
2023-05-10T09:59:37.321Z,29.40
2023-05-10T10:02:06.273Z,30.93
2023-05-10T10:04:41.927Z,30.10
2023-05-10T10:07:11.018Z,28.10
2023-05-10T10:09:40.958Z,28.90
2023-05-10T10:12:09.797Z,25.70
2023-05-10T10:14:38.652Z,26.53
2023-05-10T10:17:08.742Z,26.43
2023-05-10T10:19:39.362Z,21.83
2023-05-10T10:22:08.379Z,25.50
2023-05-10T10:24:37.580Z,26.43
2023-05-10T10:27:14.259Z,30.67
2023-05-10T10:29:52.391Z,26.30
2023-05-10T10:32:28.529Z,29.60
2023-05-10T10:34:59.184Z,34.60
2023-05-10T10:37:46.456Z,32.00
2023-05-10T10:40:29.065Z,29.47
2023-05-10T10:42:59.840Z,30.03
2023-05-10T10:45:28.694Z,30.43
2023-05-10T10:48:37.415Z,28.50
2023-05-10T10:51:07.570Z,24.00
2023-05-10T10:53:37.188Z,24.10
2023-05-10T10:56:11.181Z,19.70
2023-05-10T10:58:41.101Z,22.20
2023-05-10T11:01:20.430Z,21.17
2023-05-10T11:04:21.890Z,17.93
2023-05-10T11:06:53.032Z,19.43
2023-05-10T11:09:22.026Z,15.83
2023-05-10T11:11:56.485Z,17.50
2023-05-10T11:14:25.686Z,16.57
2023-05-10T11:16:55.930Z,15.63
2023-05-10T11:19:30.418Z,14.10
2023-05-10T11:22:19.216Z,15.53
2023-05-10T11:25:00.315Z,12.67
2023-05-10T11:27:29.013Z,14.77
2023-05-10T11:29:57.947Z,21.30
2023-05-10T11:32:26.751Z,16.00
2023-05-10T11:34:55.336Z,18.07
2023-05-10T11:37:25.350Z,19.93
2023-05-10T11:39:57.122Z,19.03
2023-05-10T11:42:25.681Z,18.50
2023-05-10T11:44:54.278Z,20.97
2023-05-10T11:47:23.969Z,22.07
2023-05-10T11:49:53.842Z,21.23
2023-05-10T11:52:22.643Z,19.40
2023-05-10T11:54:55.647Z,20.63
2023-05-10T11:57:29.308Z,19.63
2023-05-10T11:59:59.515Z,18.20
2023-05-10T12:02:28.522Z,18.07
2023-05-10T12:04:58.144Z,21.20
2023-05-10T12:07:28.876Z,21.07
2023-05-10T12:10:11.214Z,19.60
2023-05-10T12:12:43.036Z,24.43
2023-05-10T12:15:20.526Z,21.50
2023-05-10T12:17:50.502Z,23.67
2023-05-10T12:20:20.678Z,27.87
2023-05-10T12:22:52.606Z,23.90
2023-05-10T12:25:24.456Z,25.73
2023-05-10T12:27:56.486Z,26.30
2023-05-10T12:30:25.986Z,25.27
2023-05-10T12:32:56.053Z,25.43
2023-05-10T12:35:25.290Z,25.63
2023-05-10T12:37:54.282Z,27.70
2023-05-10T12:40:24.599Z,25.70
2023-05-10T12:42:53.776Z,26.30
2023-05-10T12:45:23.408Z,27.53
2023-05-10T12:47:52.002Z,24.03
2023-05-10T12:50:20.978Z,24.70
2023-05-10T12:52:49.828Z,24.37
2023-05-10T12:55:18.498Z,27.93
2023-05-10T12:57:49.204Z,25.60
2023-05-10T13:00:18.879Z,26.10
2023-05-10T13:02:48.206Z,24.97
2023-05-10T13:05:17.039Z,27.07
2023-05-10T13:07:46.379Z,23.60
2023-05-10T13:10:15.322Z,24.17
2023-05-10T13:12:44.136Z,26.37
2023-05-10T13:15:14.575Z,22.27
2023-05-10T13:17:43.944Z,20.37
2023-05-10T13:20:13.627Z,21.00
2023-05-10T13:22:43.577Z,20.03
2023-05-10T13:25:13.516Z,19.73
2023-05-10T13:27:42.885Z,19.23
2023-05-10T13:30:13.548Z,21.17
2023-05-10T13:32:42.353Z,18.97
2023-05-10T13:35:11.570Z,18.43
2023-05-10T13:37:40.118Z,17.87
2023-05-10T13:40:10.010Z,18.73
2023-05-10T13:42:38.611Z,18.40
2023-05-10T13:45:09.565Z,21.93
2023-05-10T13:47:39.663Z,19.13
2023-05-10T13:50:09.973Z,19.37
2023-05-10T13:52:38.591Z,19.37
2023-05-10T13:55:07.764Z,21.33
2023-05-10T13:57:37.183Z,19.00
2023-05-10T14:00:07.216Z,21.90
2023-05-10T14:02:36.859Z,10.87
2023-05-10T14:05:07.828Z,11.53
2023-05-10T14:07:36.876Z,12.83
2023-05-10T14:10:05.947Z,10.37
2023-05-10T14:12:34.565Z,11.70
2023-05-10T14:15:03.653Z,12.87
2023-05-10T14:17:32.196Z,9.80
2023-05-10T14:20:01.029Z,13.57
2023-05-10T14:22:31.584Z,11.47
2023-05-10T14:25:03.755Z,11.77
2023-05-10T14:27:32.510Z,14.23
2023-05-10T14:30:01.361Z,12.53
2023-05-10T14:32:30.253Z,17.17
2023-05-10T14:34:59.063Z,13.57
2023-05-10T14:37:27.971Z,17.93
2023-05-10T14:39:58.182Z,14.10
2023-05-10T14:42:27.052Z,16.87
2023-05-10T14:44:55.626Z,16.67
2023-05-10T14:47:26.676Z,14.23
2023-05-10T14:49:55.429Z,13.10
2023-05-10T14:52:24.038Z,13.17
2023-05-10T14:54:52.769Z,14.97
2023-05-10T14:57:22.747Z,11.60
2023-05-10T14:59:51.158Z,13.83
2023-05-10T15:02:20.055Z,11.53
2023-05-10T15:04:48.947Z,12.93
2023-05-10T15:07:19.535Z,12.33
2023-05-10T15:09:50.683Z,12.97
2023-05-10T15:12:23.398Z,12.83
2023-05-10T15:14:52.150Z,18.53
2023-05-10T15:17:20.689Z,18.90
2023-05-10T15:19:50.224Z,18.63
2023-05-10T15:22:19.020Z,19.67
2023-05-10T15:24:48.109Z,14.83
2023-05-10T15:27:16.845Z,13.60
2023-05-10T15:29:46.685Z,18.17
2023-05-10T15:32:15.357Z,18.57
2023-05-10T15:34:44.298Z,17.20
2023-05-10T15:37:13.081Z,22.33
2023-05-10T15:39:41.816Z,23.33
2023-05-10T15:42:10.393Z,24.70
2023-05-10T15:44:39.614Z,27.03
2023-05-10T15:47:09.585Z,24.00
2023-05-10T15:49:38.386Z,23.40
2023-05-10T15:52:07.642Z,25.47
2023-05-10T15:54:36.131Z,25.30
2023-05-10T15:57:04.739Z,26.40
2023-05-10T15:59:35.800Z,29.43
2023-05-10T16:02:05.039Z,31.00
2023-05-10T16:04:34.764Z,30.43
2023-05-10T16:07:03.293Z,32.83
2023-05-10T16:09:31.644Z,35.00
2023-05-10T16:12:00.252Z,31.27
2023-05-10T16:14:29.274Z,25.10
2023-05-10T16:16:57.795Z,28.37
2023-05-10T16:19:29.144Z,28.33
2023-05-10T16:22:00.055Z,24.80
2023-05-10T16:24:28.758Z,23.60
2023-05-10T16:26:57.407Z,25.83
2023-05-10T16:29:26.707Z,26.63
2023-05-10T16:31:55.236Z,26.87
2023-05-10T16:34:25.397Z,31.40
2023-05-10T16:36:54.243Z,36.63
2023-05-10T16:39:24.383Z,37.70
2023-05-10T16:41:52.955Z,36.43
2023-05-10T16:44:23.588Z,34.90
2023-05-10T16:46:54.960Z,30.43
2023-05-10T16:49:25.774Z,29.63
2023-05-10T16:51:54.927Z,29.33
2023-05-10T16:54:24.851Z,33.57
2023-05-10T16:56:53.448Z,28.27
2023-05-10T16:59:22.116Z,26.43
2023-05-10T17:01:50.590Z,28.93
2023-05-10T17:04:19.255Z,26.70
2023-05-10T17:06:48.101Z,26.20
2023-05-10T17:09:16.982Z,26.63
2023-05-10T17:11:48.248Z,26.60
2023-05-10T17:14:16.814Z,24.50
2023-05-10T17:16:45.550Z,25.90
2023-05-10T17:19:14.631Z,24.47
2023-05-10T17:21:43.326Z,21.00
2023-05-10T17:24:12.095Z,24.90
2023-05-10T17:26:40.691Z,19.77
2023-05-10T17:29:10.906Z,17.20
2023-05-10T17:31:39.646Z,16.33
2023-05-10T17:34:08.805Z,13.53
2023-05-10T17:36:37.641Z,14.63
2023-05-10T17:39:06.435Z,16.13
2023-05-10T17:41:35.016Z,13.30
2023-05-10T17:44:03.829Z,14.50
2023-05-10T17:46:34.966Z,15.63
2023-05-10T17:49:03.568Z,14.27
2023-05-10T17:51:32.200Z,12.50
2023-05-10T17:54:07.316Z,16.93
2023-05-10T17:56:36.538Z,13.63
2023-05-10T17:59:05.422Z,16.10
2023-05-10T18:01:36.153Z,17.50
2023-05-10T18:04:05.065Z,12.67
2023-05-10T18:06:37.428Z,13.97
2023-05-10T18:09:07.451Z,9.03
2023-05-10T18:11:36.724Z,16.40
2023-05-10T18:14:05.225Z,15.17
2023-05-10T18:16:35.402Z,18.97
2023-05-10T18:19:04.070Z,15.47
2023-05-10T18:21:32.810Z,11.47
2023-05-10T18:24:34.371Z,13.43
2023-05-10T18:27:06.997Z,15.53
2023-05-10T18:29:36.340Z,12.23
2023-05-10T18:32:07.026Z,11.63
2023-05-10T18:34:35.684Z,15.23
2023-05-10T18:37:07.593Z,15.93
2023-05-10T18:39:37.858Z,15.73
2023-05-10T18:42:07.436Z,11.10
2023-05-10T18:44:36.299Z,19.33
2023-05-10T18:47:06.970Z,12.10
2023-05-10T18:49:35.773Z,13.37
2023-05-10T18:52:04.277Z,12.87
2023-05-10T18:54:33.173Z,11.33
2023-05-10T18:57:01.783Z,11.83
2023-05-10T18:59:30.567Z,14.80
2023-05-10T19:01:59.262Z,10.57
2023-05-10T19:04:29.472Z,11.70
2023-05-10T19:06:58.333Z,10.70
2023-05-10T19:09:28.191Z,12.53
2023-05-10T19:11:56.862Z,11.43
2023-05-10T19:14:26.190Z,11.70
2023-05-10T19:16:54.917Z,12.10
2023-05-10T19:19:24.866Z,16.47
2023-05-10T19:21:56.236Z,11.73
2023-05-10T19:24:25.910Z,16.93
2023-05-10T19:26:58.184Z,14.30
2023-05-10T19:29:27.553Z,13.80
2023-05-10T19:31:56.225Z,12.57
2023-05-10T19:34:24.908Z,14.97
2023-05-10T19:36:56.213Z,18.37
2023-05-10T19:39:26.927Z,16.33
2023-05-10T19:41:55.689Z,19.70
2023-05-10T19:44:25.577Z,17.03
2023-05-10T19:46:55.335Z,16.87
2023-05-10T19:49:24.182Z,19.23
2023-05-10T19:51:55.363Z,16.67
2023-05-10T19:54:23.857Z,16.90
2023-05-10T19:56:54.601Z,20.97
2023-05-10T19:59:23.606Z,21.73
2023-05-10T20:01:52.399Z,17.07
2023-05-10T20:04:21.422Z,27.83
2023-05-10T20:06:50.009Z,20.17
2023-05-10T20:09:19.891Z,19.87
2023-05-10T20:11:48.434Z,29.70
2023-05-10T20:14:17.158Z,19.93
2023-05-10T20:16:45.728Z,18.80
2023-05-10T20:19:14.381Z,19.73
2023-05-10T20:21:43.433Z,19.37
2023-05-10T20:24:11.880Z,17.77
2023-05-10T20:26:41.922Z,20.00
2023-05-10T20:29:11.614Z,19.20
2023-05-10T20:31:40.296Z,25.60
2023-05-10T20:34:08.852Z,16.80
2023-05-10T20:36:37.413Z,21.30
2023-05-10T20:39:06.115Z,20.37
2023-05-10T20:41:34.559Z,25.10
2023-05-10T20:44:06.028Z,29.47
2023-05-10T20:46:35.104Z,24.03
2023-05-10T20:49:04.410Z,22.40
2023-05-10T20:51:33.368Z,23.50
2023-05-10T20:54:04.519Z,26.97
2023-05-10T20:56:34.004Z,21.97
2023-05-10T20:59:02.713Z,25.73
2023-05-10T21:01:32.938Z,24.00
2023-05-10T21:04:01.752Z,24.73
2023-05-10T21:06:31.602Z,25.23
2023-05-10T21:09:00.760Z,24.63
2023-05-10T21:11:30.090Z,33.03
2023-05-10T21:13:59.709Z,27.83
2023-05-10T21:16:28.468Z,33.67
2023-05-10T21:18:58.596Z,40.67
2023-05-10T21:21:27.564Z,37.80
2023-05-10T21:23:56.222Z,38.37
2023-05-10T21:26:24.764Z,40.23
2023-05-10T21:28:53.429Z,37.63
2023-05-10T21:31:21.908Z,36.40
2023-05-10T21:33:50.689Z,36.90
2023-05-10T21:36:20.651Z,35.00
2023-05-10T21:38:50.647Z,40.47
2023-05-10T21:41:19.249Z,41.30
2023-05-10T21:43:47.755Z,39.10
2023-05-10T21:46:16.566Z,40.70
2023-05-10T21:48:45.300Z,36.73
2023-05-10T21:51:13.688Z,39.10
2023-05-10T21:53:44.686Z,33.83
2023-05-10T21:56:13.213Z,33.97
2023-05-10T21:58:42.019Z,36.77
2023-05-10T22:01:10.627Z,34.77
2023-05-10T22:03:39.461Z,34.67
2023-05-10T22:06:08.567Z,39.10
2023-05-10T22:08:37.355Z,34.93
2023-05-10T22:11:07.448Z,37.47
2023-05-10T22:13:36.097Z,36.83
2023-05-10T22:16:04.886Z,36.73
2023-05-10T22:18:33.739Z,41.93
2023-05-10T22:21:02.575Z,36.37
2023-05-10T22:23:31.651Z,36.37
2023-05-10T22:26:02.720Z,39.00
2023-05-10T22:28:32.791Z,37.47
2023-05-10T22:31:01.490Z,40.03
2023-05-10T22:33:30.308Z,33.93
2023-05-10T22:35:59.080Z,34.67
2023-05-10T22:38:27.809Z,34.87
2023-05-10T22:40:56.566Z,39.37
2023-05-10T22:43:25.126Z,37.43
2023-05-10T22:45:55.185Z,38.03
2023-05-10T22:48:23.803Z,35.77
2023-05-10T22:50:52.316Z,36.10
2023-05-10T22:53:20.800Z,34.60
2023-05-10T22:55:49.446Z,40.07
2023-05-10T22:58:18.091Z,37.93
2023-05-10T23:00:46.719Z,39.17
2023-05-10T23:03:16.858Z,35.00
2023-05-10T23:05:45.723Z,37.03
2023-05-10T23:08:14.621Z,33.83
2023-05-10T23:10:43.150Z,41.20
2023-05-10T23:13:11.934Z,33.53
2023-05-10T23:15:40.507Z,39.20
2023-05-10T23:18:09.818Z,37.67
2023-05-10T23:20:39.888Z,37.33
2023-05-10T23:23:08.483Z,38.60
2023-05-10T23:25:37.304Z,37.10
2023-05-10T23:28:06.692Z,40.17
2023-05-10T23:30:35.256Z,40.40
2023-05-10T23:33:04.062Z,39.07
2023-05-10T23:35:35.858Z,43.00
2023-05-10T23:38:05.990Z,44.10
2023-05-10T23:40:36.567Z,44.10
2023-05-10T23:43:04.987Z,40.63
2023-05-10T23:45:33.814Z,42.07
2023-05-10T23:48:02.294Z,43.20
2023-05-10T23:50:31.102Z,41.33
2023-05-10T23:52:59.523Z,43.80
2023-05-10T23:55:29.269Z,39.73
2023-05-10T23:57:57.806Z,39.90
